createdAt,value
2023-04-19T00:01:29.435Z,9.63
2023-04-19T00:03:57.083Z,9.60
2023-04-19T00:06:24.737Z,9.66
2023-04-19T00:08:51.481Z,9.64
2023-04-19T00:11:18.429Z,9.64
2023-04-19T00:13:45.048Z,9.63
2023-04-19T00:16:11.779Z,9.60
2023-04-19T00:18:38.974Z,9.59
2023-04-19T00:21:06.015Z,9.60
2023-04-19T00:23:32.765Z,9.61
2023-04-19T00:25:59.579Z,9.62
2023-04-19T00:28:26.362Z,9.57
2023-04-19T00:30:53.068Z,9.60
2023-04-19T00:33:20.148Z,9.59
2023-04-19T00:35:46.860Z,9.40
2023-04-19T00:38:13.560Z,9.58
2023-04-19T00:40:40.507Z,9.51
2023-04-19T00:43:07.671Z,9.55
2023-04-19T00:45:36.362Z,9.43
2023-04-19T00:48:03.426Z,9.54
2023-04-19T00:50:30.622Z,9.53
2023-04-19T00:52:57.929Z,9.49
2023-04-19T00:55:25.086Z,9.48
2023-04-19T00:57:52.359Z,9.53
2023-04-19T01:00:20.128Z,9.52
2023-04-19T01:02:48.195Z,9.49
2023-04-19T01:05:15.321Z,9.48
2023-04-19T01:07:43.319Z,9.47
2023-04-19T01:10:10.432Z,9.48
2023-04-19T01:12:37.180Z,9.45
2023-04-19T01:15:04.223Z,9.46
2023-04-19T01:17:34.521Z,9.44
2023-04-19T01:20:02.501Z,9.38
2023-04-19T01:22:30.199Z,9.41
2023-04-19T01:24:57.296Z,9.39
2023-04-19T01:27:24.087Z,9.38
2023-04-19T01:29:50.847Z,9.35
2023-04-19T01:32:17.636Z,9.32
2023-04-19T01:34:44.272Z,9.34
2023-04-19T01:37:10.937Z,9.29
2023-04-19T01:39:37.569Z,9.31
2023-04-19T01:42:04.454Z,9.26
2023-04-19T01:44:31.128Z,9.24
2023-04-19T01:46:57.870Z,9.26
2023-04-19T01:49:24.574Z,9.26
2023-04-19T01:51:51.251Z,9.26
2023-04-19T01:54:17.990Z,9.24
2023-04-19T01:56:44.756Z,9.21
2023-04-19T01:59:11.429Z,9.25
2023-04-19T02:01:38.212Z,9.24
2023-04-19T02:04:05.122Z,9.24
2023-04-19T02:06:31.952Z,9.19
2023-04-19T02:08:59.298Z,9.21
2023-04-19T02:11:26.058Z,9.16
2023-04-19T02:13:52.699Z,9.13
2023-04-19T02:16:19.893Z,9.14
2023-04-19T02:18:46.933Z,9.13
2023-04-19T02:21:14.138Z,9.11
2023-04-19T02:23:40.893Z,9.09
2023-04-19T02:26:07.510Z,9.07
2023-04-19T02:28:34.176Z,9.06
2023-04-19T02:31:05.934Z,9.06
2023-04-19T02:33:32.650Z,9.06
2023-04-19T02:35:59.281Z,9.05
2023-04-19T02:38:26.504Z,9.04
2023-04-19T02:40:53.089Z,9.07
2023-04-19T02:43:19.730Z,9.11
2023-04-19T02:45:46.410Z,9.10
2023-04-19T02:48:13.156Z,9.11
2023-04-19T02:50:39.809Z,9.05
2023-04-19T02:53:07.132Z,9.04
2023-04-19T02:55:33.845Z,9.08
2023-04-19T02:58:00.517Z,9.08
2023-04-19T03:00:27.315Z,9.07
2023-04-19T03:02:56.230Z,9.05
2023-04-19T03:05:23.577Z,9.06
2023-04-19T03:07:50.559Z,9.05
2023-04-19T03:10:17.314Z,9.02
2023-04-19T03:12:44.005Z,8.99
2023-04-19T03:15:11.244Z,9.01
2023-04-19T03:17:38.051Z,8.96
2023-04-19T03:20:14.419Z,8.83
2023-04-19T03:22:41.156Z,8.98
2023-04-19T03:25:08.593Z,8.94
2023-04-19T03:27:36.833Z,8.94
2023-04-19T03:30:04.005Z,8.94
2023-04-19T03:32:31.921Z,8.94
2023-04-19T03:34:58.523Z,8.94
2023-04-19T03:37:25.623Z,8.94
2023-04-19T03:39:52.272Z,8.92
2023-04-19T03:42:18.966Z,8.88
2023-04-19T03:44:45.859Z,8.89
2023-04-19T03:47:12.540Z,8.88
2023-04-19T03:49:39.241Z,8.87
2023-04-19T03:52:06.019Z,8.84
2023-04-19T03:54:32.615Z,8.85
2023-04-19T03:56:59.569Z,8.86
2023-04-19T03:59:26.570Z,8.87
2023-04-19T04:01:53.346Z,8.87
2023-04-19T04:04:20.532Z,8.83
2023-04-19T04:06:47.390Z,8.80
2023-04-19T04:09:14.015Z,8.89
2023-04-19T04:11:40.634Z,8.84
2023-04-19T04:14:07.375Z,8.90
2023-04-19T04:16:33.984Z,8.89
2023-04-19T04:19:00.663Z,8.92
2023-04-19T04:21:28.276Z,8.92
2023-04-19T04:23:54.965Z,8.96
2023-04-19T04:26:22.037Z,8.97
2023-04-19T04:28:48.968Z,8.99
2023-04-19T04:31:18.146Z,8.99
2023-04-19T04:33:46.144Z,9.01
2023-04-19T04:36:13.077Z,8.99
2023-04-19T04:38:39.830Z,9.00
2023-04-19T04:41:06.499Z,9.06
2023-04-19T04:43:34.787Z,9.05
2023-04-19T04:46:02.025Z,9.12
2023-04-19T04:48:28.783Z,9.15
2023-04-19T04:50:55.516Z,9.14
2023-04-19T04:53:23.735Z,9.17
2023-04-19T04:55:50.421Z,9.23
2023-04-19T04:58:18.024Z,9.30
2023-04-19T05:00:47.083Z,9.22
2023-04-19T05:03:13.968Z,9.34
2023-04-19T05:05:40.675Z,9.40
2023-04-19T05:08:07.885Z,9.42
2023-04-19T05:10:34.573Z,9.47
2023-04-19T05:13:01.853Z,9.48
2023-04-19T05:15:28.560Z,9.57
2023-04-19T05:17:55.203Z,9.64
2023-04-19T05:20:22.050Z,9.62
2023-04-19T05:22:49.658Z,9.66
2023-04-19T05:25:17.589Z,9.73
2023-04-19T05:27:47.345Z,9.80
2023-04-19T05:30:14.238Z,9.91
2023-04-19T05:32:41.206Z,9.97
2023-04-19T05:35:08.690Z,10.01
2023-04-19T05:37:36.691Z,10.08
2023-04-19T05:40:10.114Z,10.11
2023-04-19T05:42:37.187Z,10.15
2023-04-19T05:45:06.133Z,10.25
2023-04-19T05:47:33.203Z,10.30
2023-04-19T05:50:00.514Z,10.29
2023-04-19T05:52:27.114Z,10.39
2023-04-19T05:54:53.816Z,10.44
2023-04-19T05:57:20.587Z,10.50
2023-04-19T05:59:47.406Z,10.55
2023-04-19T06:02:14.128Z,10.61
2023-04-19T06:04:41.636Z,10.65
2023-04-19T06:07:21.698Z,10.69
2023-04-19T06:09:55.365Z,10.73
2023-04-19T06:12:22.060Z,10.79
2023-04-19T06:14:48.728Z,10.85
2023-04-19T06:17:17.062Z,10.93
2023-04-19T06:19:43.759Z,11.00
2023-04-19T06:22:10.996Z,11.00
2023-04-19T06:24:37.971Z,11.08
2023-04-19T06:27:04.582Z,11.19
2023-04-19T06:29:31.235Z,11.27
2023-04-19T06:31:58.189Z,11.32
2023-04-19T06:34:24.954Z,11.43
2023-04-19T06:36:51.606Z,11.56
2023-04-19T06:39:18.501Z,11.65
2023-04-19T06:41:45.544Z,11.72
2023-04-19T06:44:13.434Z,11.88
2023-04-19T06:46:40.407Z,11.95
2023-04-19T06:49:07.029Z,11.92
2023-04-19T06:51:33.802Z,12.15
2023-04-19T06:54:03.568Z,12.26
2023-04-19T06:57:03.604Z,12.41
2023-04-19T06:59:32.375Z,12.53
2023-04-19T07:01:59.507Z,12.62
2023-04-19T07:04:27.123Z,12.62
2023-04-19T07:06:54.007Z,12.85
2023-04-19T07:09:20.637Z,12.93
2023-04-19T07:11:47.940Z,13.02
2023-04-19T07:14:16.282Z,13.15
2023-04-19T07:16:43.160Z,13.29
2023-04-19T07:19:09.784Z,13.34
2023-04-19T07:21:38.606Z,13.45
2023-04-19T07:24:06.825Z,13.63
2023-04-19T07:26:34.406Z,13.71
2023-04-19T07:29:01.453Z,13.82
2023-04-19T07:31:28.434Z,14.02
2023-04-19T07:33:55.178Z,14.24
2023-04-19T07:36:22.145Z,14.33
2023-04-19T07:38:48.931Z,14.55
2023-04-19T07:41:15.719Z,14.63
2023-04-19T07:43:42.703Z,14.77
2023-04-19T07:46:11.374Z,14.85
2023-04-19T07:48:38.388Z,15.04
2023-04-19T07:51:12.090Z,15.21
2023-04-19T07:53:40.184Z,15.27
2023-04-19T07:56:12.925Z,15.36
2023-04-19T07:58:41.504Z,15.51
2023-04-19T08:01:08.567Z,15.64
2023-04-19T08:03:36.384Z,15.83
2023-04-19T08:06:10.117Z,15.94
2023-04-19T08:08:37.412Z,16.10
2023-04-19T08:11:04.833Z,16.27
2023-04-19T08:13:31.484Z,16.44
2023-04-19T08:18:27.778Z,16.53
2023-04-19T08:20:55.072Z,16.60
2023-04-19T08:23:29.668Z,16.65
2023-04-19T08:26:01.918Z,16.78
2023-04-19T08:28:28.565Z,17.02
2023-04-19T08:30:55.469Z,17.28
2023-04-19T08:33:25.994Z,17.60
2023-04-19T08:35:52.630Z,17.76
2023-04-19T08:38:19.279Z,17.81
2023-04-19T08:40:50.363Z,17.87
2023-04-19T08:43:18.361Z,17.93
2023-04-19T08:45:48.208Z,17.93
2023-04-19T08:48:16.365Z,17.93
2023-04-19T08:51:00.650Z,17.98
2023-04-19T08:53:31.306Z,17.98
2023-04-19T08:58:50.306Z,17.72
2023-04-19T09:01:33.928Z,17.45
2023-04-19T09:04:26.426Z,17.28
2023-04-19T09:06:52.722Z,17.23
2023-04-19T09:11:58.108Z,17.06
2023-04-19T09:14:26.741Z,17.05
2023-04-19T09:16:53.457Z,17.08
2023-04-19T09:19:24.689Z,17.09
2023-04-19T09:21:54.501Z,17.22
2023-04-19T09:25:15.425Z,17.26
2023-04-19T09:27:35.116Z,17.26
2023-04-19T09:30:03.578Z,17.17
2023-04-19T09:32:48.615Z,17.06
2023-04-19T09:35:16.231Z,16.93
2023-04-19T09:40:23.848Z,16.76
2023-04-19T09:45:29.839Z,16.80
2023-04-19T09:48:09.607Z,16.94
2023-04-19T09:53:18.554Z,17.26
2023-04-19T09:55:57.651Z,17.29
2023-04-19T09:58:34.372Z,17.25
2023-04-19T10:01:15.486Z,17.31
2023-04-19T10:03:45.235Z,17.41
2023-04-19T10:06:35.980Z,17.53
2023-04-19T10:09:05.096Z,17.66
2023-04-19T10:11:39.001Z,17.71
2023-04-19T10:14:07.625Z,17.71
2023-04-19T10:16:36.378Z,17.70
2023-04-19T10:19:08.157Z,17.62
2023-04-19T10:21:36.741Z,17.58
2023-04-19T10:24:04.535Z,17.51
2023-04-19T10:26:51.454Z,17.29
2023-04-19T10:29:56.507Z,17.20
2023-04-19T10:32:24.831Z,17.21
2023-04-19T10:34:54.744Z,17.24
2023-04-19T10:37:26.307Z,17.35
2023-04-19T10:39:53.070Z,17.41
2023-04-19T10:42:19.686Z,17.41
2023-04-19T10:45:23.786Z,17.49
2023-04-19T10:47:52.184Z,17.54
2023-04-19T10:50:19.165Z,17.66
2023-04-19T10:52:46.010Z,17.80
2023-04-19T10:55:16.807Z,17.96
2023-04-19T10:58:06.423Z,17.94
2023-04-19T11:00:33.684Z,18.07
2023-04-19T11:03:01.382Z,18.22
2023-04-19T11:05:28.166Z,18.23
2023-04-19T11:07:54.799Z,18.21
2023-04-19T11:10:31.486Z,18.22
2023-04-19T11:12:58.574Z,18.17
2023-04-19T11:15:25.245Z,18.15
2023-04-19T11:18:04.711Z,18.10
2023-04-19T11:20:38.660Z,18.13
2023-04-19T11:23:17.121Z,18.07
2023-04-19T11:25:48.029Z,18.03
2023-04-19T11:28:17.565Z,17.81
2023-04-19T11:30:44.563Z,17.59
2023-04-19T11:33:13.498Z,17.38
2023-04-19T11:35:41.494Z,17.19
2023-04-19T11:38:08.134Z,16.99
2023-04-19T11:40:34.809Z,16.91
2023-04-19T11:43:05.017Z,16.88
2023-04-19T11:45:39.447Z,16.80
2023-04-19T11:48:08.235Z,16.71
2023-04-19T11:50:45.769Z,16.72
2023-04-19T11:53:17.450Z,16.90
2023-04-19T11:55:45.946Z,17.00
2023-04-19T11:58:33.993Z,17.17
2023-04-19T12:01:07.059Z,17.20
2023-04-19T12:03:35.738Z,17.10
2023-04-19T12:06:04.110Z,17.05
2023-04-19T12:08:35.351Z,17.03
2023-04-19T12:11:03.838Z,16.99
2023-04-19T12:13:31.729Z,17.09
2023-04-19T12:15:59.175Z,17.10
2023-04-19T12:18:28.346Z,17.14
2023-04-19T12:20:55.088Z,17.13
2023-04-19T12:23:22.124Z,17.11
2023-04-19T12:25:50.076Z,17.11
2023-04-19T12:28:17.197Z,17.12
2023-04-19T12:30:44.233Z,17.16
2023-04-19T12:33:11.515Z,17.29
2023-04-19T12:35:39.248Z,17.50
2023-04-19T12:38:06.139Z,17.72
2023-04-19T12:40:33.232Z,17.85
2023-04-19T12:42:59.822Z,17.96
2023-04-19T12:45:27.456Z,18.05
2023-04-19T12:47:54.151Z,18.17
2023-04-19T12:50:20.880Z,18.29
2023-04-19T12:52:47.860Z,18.38
2023-04-19T12:55:14.724Z,18.44
2023-04-19T12:57:42.603Z,18.39
2023-04-19T13:00:11.088Z,18.38
2023-04-19T13:02:38.051Z,18.29
2023-04-19T13:05:07.380Z,18.16
2023-04-19T13:07:34.281Z,18.04
2023-04-19T13:10:00.991Z,17.90
2023-04-19T13:12:28.388Z,17.78
2023-04-19T13:14:55.036Z,17.67
2023-04-19T13:17:22.197Z,17.61
2023-04-19T13:19:48.943Z,17.53
2023-04-19T13:22:15.821Z,17.52
2023-04-19T13:24:42.604Z,17.53
2023-04-19T13:27:09.603Z,17.50
2023-04-19T13:29:36.895Z,17.54
2023-04-19T13:32:07.313Z,17.58
2023-04-19T13:34:34.171Z,17.60
2023-04-19T13:37:01.104Z,17.56
2023-04-19T13:39:27.738Z,17.57
2023-04-19T13:41:54.377Z,17.53
2023-04-19T13:44:21.134Z,17.51
2023-04-19T13:46:47.979Z,17.61
2023-04-19T13:49:14.605Z,17.70
2023-04-19T13:51:49.578Z,17.67
2023-04-19T13:54:21.401Z,17.72
2023-04-19T13:56:51.306Z,17.75
2023-04-19T13:59:18.941Z,17.74
2023-04-19T14:01:45.563Z,17.56
2023-04-19T14:04:12.610Z,17.38
2023-04-19T14:06:39.683Z,17.17
2023-04-19T14:09:07.192Z,17.09
2023-04-19T14:11:34.336Z,17.04
2023-04-19T14:14:01.341Z,17.07
2023-04-19T14:16:28.055Z,17.08
2023-04-19T14:18:54.829Z,17.06
2023-04-19T14:21:21.550Z,17.17
2023-04-19T14:23:56.432Z,17.20
2023-04-19T14:26:29.159Z,17.29
2023-04-19T14:29:00.492Z,17.23
2023-04-19T14:31:27.161Z,17.30
2023-04-19T14:33:53.820Z,17.27
2023-04-19T14:36:20.524Z,17.18
2023-04-19T14:38:47.159Z,17.41
2023-04-19T14:41:13.758Z,17.44
2023-04-19T14:43:40.702Z,17.44
2023-04-19T14:46:09.197Z,17.41
2023-04-19T14:48:36.062Z,17.30
2023-04-19T14:51:02.775Z,17.33
2023-04-19T14:53:29.435Z,17.32
2023-04-19T14:55:56.342Z,17.34
2023-04-19T14:58:26.686Z,17.34
2023-04-19T15:00:54.947Z,17.32
2023-04-19T15:03:21.785Z,17.34
2023-04-19T15:05:48.679Z,17.33
2023-04-19T15:08:29.085Z,17.26
2023-04-19T15:10:57.328Z,17.27
2023-04-19T15:13:28.996Z,17.22
2023-04-19T15:15:56.129Z,17.15
2023-04-19T15:18:22.953Z,17.12
2023-04-19T15:20:49.614Z,17.05
2023-04-19T15:23:16.709Z,17.05
2023-04-19T15:25:44.767Z,17.08
2023-04-19T15:28:11.386Z,17.12
2023-04-19T15:30:37.977Z,17.12
2023-04-19T15:33:04.901Z,17.09
2023-04-19T15:35:32.183Z,17.07
2023-04-19T15:37:58.777Z,16.99
2023-04-19T15:40:25.853Z,16.92
2023-04-19T15:42:52.518Z,16.88
2023-04-19T15:45:19.299Z,16.86
2023-04-19T15:47:46.205Z,16.86
2023-04-19T15:50:12.971Z,16.79
2023-04-19T15:52:39.606Z,16.70
2023-04-19T15:55:06.764Z,16.63
2023-04-19T15:57:33.400Z,16.55
2023-04-19T16:00:00.299Z,16.46
2023-04-19T16:02:27.205Z,16.41
2023-04-19T16:04:54.157Z,16.33
2023-04-19T16:07:21.159Z,16.24
2023-04-19T16:09:47.742Z,16.21
2023-04-19T16:12:14.402Z,16.13
2023-04-19T16:14:41.012Z,16.08
2023-04-19T16:17:07.653Z,16.03
2023-04-19T16:19:34.351Z,16.00
2023-04-19T16:22:02.234Z,15.98
2023-04-19T16:24:29.165Z,15.95
2023-04-19T16:26:55.906Z,15.94
2023-04-19T16:29:22.518Z,15.92
2023-04-19T16:31:52.089Z,15.86
2023-04-19T16:34:19.917Z,15.84
2023-04-19T16:36:46.845Z,15.81
2023-04-19T16:39:13.604Z,15.77
2023-04-19T16:41:40.260Z,15.73
2023-04-19T16:44:06.884Z,15.69
2023-04-19T16:46:33.899Z,15.66
2023-04-19T16:49:01.088Z,15.63
2023-04-19T16:51:28.325Z,15.59
2023-04-19T16:53:56.101Z,15.54
2023-04-19T16:56:24.290Z,15.53
2023-04-19T16:58:51.719Z,15.49
2023-04-19T17:01:18.474Z,15.42
2023-04-19T17:03:45.763Z,15.41
2023-04-19T17:06:12.705Z,15.33
2023-04-19T17:08:39.616Z,15.33
2023-04-19T17:11:06.984Z,15.30
2023-04-19T17:13:33.780Z,15.23
2023-04-19T17:16:00.703Z,15.18
2023-04-19T17:18:28.659Z,15.15
2023-04-19T17:20:55.512Z,15.12
2023-04-19T17:23:22.449Z,15.08
2023-04-19T17:25:49.223Z,15.02
2023-04-19T17:28:16.871Z,14.91
2023-04-19T17:30:43.796Z,14.83
2023-04-19T17:33:11.007Z,14.78
2023-04-19T17:35:37.968Z,14.68
2023-04-19T17:38:04.897Z,14.61
2023-04-19T17:40:33.428Z,14.53
2023-04-19T17:43:00.263Z,14.44
2023-04-19T17:45:29.746Z,14.32
2023-04-19T17:47:56.663Z,14.26
2023-04-19T17:50:23.333Z,14.22
2023-04-19T17:52:50.000Z,14.09
2023-04-19T17:55:16.792Z,14.07
2023-04-19T17:57:46.221Z,13.90
2023-04-19T18:00:13.891Z,13.86
2023-04-19T18:02:41.123Z,13.74
2023-04-19T18:05:08.188Z,13.65
2023-04-19T18:07:36.991Z,13.54
2023-04-19T18:10:04.268Z,13.42
2023-04-19T18:12:31.020Z,13.29
2023-04-19T18:14:57.752Z,13.05
2023-04-19T18:17:24.374Z,13.06
2023-04-19T18:19:51.241Z,12.91
2023-04-19T18:22:20.690Z,12.82
2023-04-19T18:24:47.418Z,12.70
2023-04-19T18:27:14.303Z,12.57
2023-04-19T18:29:41.380Z,12.31
2023-04-19T18:32:08.149Z,12.37
2023-04-19T18:34:34.950Z,12.21
2023-04-19T18:37:03.189Z,12.12
2023-04-19T18:39:29.791Z,12.01
2023-04-19T18:41:58.276Z,11.90
2023-04-19T18:46:54.697Z,11.63
2023-04-19T18:49:21.744Z,11.54
2023-04-19T18:51:48.395Z,11.51
2023-04-19T18:54:15.081Z,11.34
2023-04-19T18:57:18.366Z,11.28
2023-04-19T18:59:28.382Z,11.25
2023-04-19T19:01:56.827Z,11.11
2023-04-19T19:06:53.989Z,10.99
2023-04-19T19:09:22.778Z,10.91
2023-04-19T19:11:56.256Z,10.80
2023-04-19T19:14:25.958Z,10.67
2023-04-19T19:16:53.084Z,10.62
2023-04-19T19:19:22.539Z,10.57
2023-04-19T19:21:49.396Z,10.47
2023-04-19T19:24:16.039Z,10.41
2023-04-19T19:26:42.637Z,10.31
2023-04-19T19:29:09.562Z,10.26
2023-04-19T19:31:36.736Z,10.23
2023-04-19T19:34:23.509Z,10.13
2023-04-19T19:36:50.700Z,10.05
2023-04-19T19:39:17.637Z,10.03
2023-04-19T19:44:15.225Z,9.90
2023-04-19T19:46:41.815Z,9.79
2023-04-19T19:49:12.578Z,9.77
2023-04-19T19:51:56.994Z,9.71
2023-04-19T19:54:25.708Z,9.64
2023-04-19T19:59:29.137Z,9.49
2023-04-19T20:01:57.467Z,9.57
2023-04-19T20:04:24.331Z,9.66
2023-04-19T20:09:21.981Z,9.83
2023-04-19T20:11:48.728Z,9.94
2023-04-19T20:14:15.356Z,10.06
2023-04-19T20:16:42.599Z,10.13
2023-04-19T20:19:13.008Z,10.16
2023-04-19T20:21:39.647Z,10.13
2023-04-19T20:24:12.106Z,10.18
2023-04-19T20:26:39.771Z,10.19
2023-04-19T20:29:06.390Z,10.16
2023-04-19T20:31:33.288Z,10.19
2023-04-19T20:33:59.940Z,10.12
2023-04-19T20:36:27.645Z,10.12
2023-04-19T20:38:56.987Z,10.11
2023-04-19T20:41:23.671Z,10.18
2023-04-19T20:43:50.549Z,10.11
2023-04-19T20:46:17.479Z,10.13
2023-04-19T20:48:44.289Z,10.08
2023-04-19T20:51:12.752Z,10.04
2023-04-19T20:53:39.477Z,9.92
2023-04-19T20:56:06.129Z,9.83
2023-04-19T20:58:33.330Z,9.76
2023-04-19T21:01:00.008Z,9.72
2023-04-19T21:03:28.987Z,9.73
2023-04-19T21:05:55.758Z,9.67
2023-04-19T21:08:26.835Z,9.62
2023-04-19T21:10:53.508Z,9.51
2023-04-19T21:13:20.191Z,9.36
2023-04-19T21:15:46.848Z,9.42
2023-04-19T21:18:13.472Z,9.37
2023-04-19T21:20:40.640Z,9.29
2023-04-19T21:23:07.690Z,9.16
2023-04-19T21:25:34.531Z,9.10
2023-04-19T21:28:01.304Z,9.03
2023-04-19T21:30:27.958Z,9.00
2023-04-19T21:32:54.615Z,8.96
2023-04-19T21:35:21.485Z,8.84
2023-04-19T21:37:48.328Z,8.81
2023-04-19T21:40:14.922Z,8.67
2023-04-19T21:42:41.529Z,8.68
2023-04-19T21:45:09.204Z,8.57
2023-04-19T21:47:35.915Z,8.56
2023-04-19T21:50:02.587Z,8.49
2023-04-19T21:52:29.482Z,8.40
2023-04-19T21:54:56.170Z,8.28
2023-04-19T21:57:24.627Z,8.22
2023-04-19T21:59:51.658Z,8.17
2023-04-19T22:02:18.492Z,8.15
2023-04-19T22:04:45.815Z,8.07
2023-04-19T22:07:12.674Z,8.03
2023-04-19T22:09:39.933Z,7.93
2023-04-19T22:12:06.852Z,7.91
2023-04-19T22:14:33.895Z,7.81
2023-04-19T22:17:02.700Z,7.78
2023-04-19T22:19:29.714Z,7.71
2023-04-19T22:21:56.329Z,7.66
2023-04-19T22:24:23.336Z,7.59
2023-04-19T22:26:51.155Z,7.58
2023-04-19T22:29:24.907Z,7.53
2023-04-19T22:31:51.552Z,7.47
2023-04-19T22:34:18.351Z,7.43
2023-04-19T22:36:45.514Z,7.33
2023-04-19T22:39:12.333Z,7.28
2023-04-19T22:41:39.004Z,7.24
2023-04-19T22:44:05.877Z,7.25
2023-04-19T22:46:33.147Z,7.18
2023-04-19T22:48:59.929Z,7.13
2023-04-19T22:51:27.811Z,7.07
2023-04-19T22:53:54.442Z,6.98
2023-04-19T22:56:21.161Z,6.93
2023-04-19T22:58:47.951Z,6.85
2023-04-19T23:01:14.754Z,6.80
2023-04-19T23:03:41.365Z,6.77
2023-04-19T23:06:08.381Z,6.73
2023-04-19T23:08:35.417Z,6.72
2023-04-19T23:11:02.010Z,6.69
2023-04-19T23:13:29.000Z,6.60
2023-04-19T23:15:55.653Z,6.62
2023-04-19T23:18:22.423Z,6.59
2023-04-19T23:20:49.027Z,6.54
2023-04-19T23:23:15.866Z,6.52
2023-04-19T23:25:42.494Z,6.49
2023-04-19T23:28:11.875Z,6.41
2023-04-19T23:30:39.186Z,6.44
2023-04-19T23:33:06.048Z,6.36
2023-04-19T23:35:32.883Z,6.28
2023-04-19T23:37:59.452Z,6.28
2023-04-19T23:40:26.305Z,6.23
2023-04-19T23:42:53.085Z,6.20
2023-04-19T23:45:19.798Z,6.11
2023-04-19T23:47:46.444Z,6.12
2023-04-19T23:50:13.357Z,6.03
2023-04-19T23:52:40.669Z,5.97
2023-04-19T23:55:07.631Z,5.94
2023-04-19T23:57:35.845Z,5.91
